Andover, MN

1:47 PM CST on March 02, 2015 (GMT -0600)
Near Andover High School | Change Station
CLOSE
Current Station
Personal Weather Station
Location: Andover, MN
Elevation: 922 ft
Nearby Weather Stations
Active Advisory: Winter Weather Advisory

Elev 922 ft 45.24 °N, 93.33 °W | Updated 21 hours ago

Partly Cloudy
Partly Cloudy
26 °F
Feels Like 17 °F
N
10
Wind Variable Wind from South
Gusts 7 mph

Today
High -- | Low -- °F
--% Chance of Precip.
Yesterday
High -- | Low -- °F
Precip. -- in
6:49 AM 6:01 PM
Waxing Gibbous, 92% visible
Pressure 30.43 in
Visibility 10.0 miles
Clouds Few 15000 ft
Windchill 17 °F
Dew Point 11 °F
Humidity 54%
Rainfall 0.00 in
Snow Depth Not available.
UV 4 out of 12
Pollen .50 out of 12
Air Quality Not available.
Flu Activity Not available.
METAR KANE 021745Z 16006KT 10SM FEW150 M03/M14 A3043

More Conditions Fewer Conditions

Pressure 30.43 in
Visibility 10.0 miles
Clouds Few 15000 ft
Windchill 17 °F
Dew Point 11 °F
Humidity 54%
Rainfall 0.00 in
Snow Depth Not available.
UV 4 out of 12
Pollen .50 out of 12
Air Quality Not available.
Flu Activity Not available.
METAR KANE 021745Z 16006KT 10SM FEW150 M03/M14 A3043

More Conditions Fewer Conditions

10-Day Weather Forecast

Almanac

Astronomy

Mar. 02, 2015 Rise Set
Actual Time
Civil Twilight
Nautical Twilight
Astronomical Twilight
Moon
Length of Visible Light
Length of Day
Tomorrow will be .
, % of the Moon is Illuminated

Today's Extremes

State Highs State Lows

Community

WunderPhotos

Upload Photos

1,801,922 photos uploaded!

WunderBlogs® & News

Nearby

Air Quality

  Air Quality AQ Index Pollutant
Not available.

Snow Depth

Station Depth Elevation

Earthquake Activity

City Distance Mag. Time & Date
Minimum magnitude displayed is 2.5.

Coastal Water Temperatures

Place Temperature

Nearby Weather Stations

Winter Weather Advisory
Statement as of 7:43 AM CST on March 02, 2015

... Winter Weather Advisory remains in effect from 3 am to 9 PM
CST Tuesday...

* timing... snow will develop late tonight and taper off Tuesday
afternoon... as winds increase behind a cold front. The strong
winds will produce areas of blowing snow through Tuesday
evening.

* Snow accumulations... 2 to 5 inches.

* Winds/visibility... wind gusts around 35 mph will produce areas
of blowing snow and visibilities less than one mile in open
areas.

* Impacts... travel will be difficult. The morning rush may be
significantly impacted by snow and the afternoon rush may be
impacted with blowing snow.

Precautionary/preparedness actions...

A Winter Weather Advisory for snow and blowing snow means that
visibilities will be limited due to a combination of falling and
blowing snow. Use caution when traveling... especially in open
areas.